createdAt,value
2019-02-15T00:00:02.913Z,6.47
2019-02-15T00:05:02.850Z,6.45
2019-02-15T00:10:03.289Z,6.10
2019-02-15T00:15:02.710Z,5.60
2019-02-15T00:20:03.153Z,6.00
2019-02-15T00:25:02.574Z,5.30
2019-02-15T00:30:02.923Z,5.87
2019-02-15T00:35:03.352Z,5.83
2019-02-15T00:40:02.773Z,5.97
2019-02-15T00:45:03.306Z,5.73
2019-02-15T00:50:02.739Z,5.60
2019-02-15T00:55:03.181Z,5.05
2019-02-15T01:00:02.596Z,5.05
2019-02-15T01:05:03.269Z,5.13
2019-02-15T01:10:02.798Z,4.97
2019-02-15T01:15:03.211Z,5.00
2019-02-15T01:20:02.628Z,5.60
2019-02-15T01:25:03.014Z,4.63
2019-02-15T01:30:02.389Z,5.20
2019-02-15T01:35:02.727Z,5.10
2019-02-15T01:40:02.382Z,0
2019-02-15T01:45:02.804Z,4.67
2019-02-15T01:50:03.152Z,5.27
2019-02-15T01:55:01.751Z,0
2019-02-15T02:00:03.146Z,5.10
2019-02-15T02:05:02.521Z,4.97
2019-02-15T02:10:02.981Z,5.07
2019-02-15T02:15:02.389Z,5.00
2019-02-15T02:20:02.735Z,4.87
2019-02-15T02:25:03.097Z,4.50
2019-02-15T02:30:02.501Z,4.73
2019-02-15T02:35:02.957Z,5.40
2019-02-15T02:40:02.472Z,4.73
2019-02-15T02:45:02.901Z,4.60
2019-02-15T02:50:03.257Z,4.77
2019-02-15T02:55:02.686Z,4.80
2019-02-15T03:00:03.115Z,4.60
2019-02-15T03:05:02.496Z,5.00
2019-02-15T03:10:02.968Z,5.10
2019-02-15T03:15:02.428Z,4.83
2019-02-15T03:20:02.824Z,5.00
2019-02-15T03:25:03.174Z,5.17
2019-02-15T03:30:02.614Z,4.97
2019-02-15T03:35:03.026Z,5.30
2019-02-15T03:40:02.445Z,5.17
2019-02-15T03:45:02.833Z,5.00
2019-02-15T03:50:04.940Z,5.20
2019-02-15T03:55:02.451Z,5.13
2019-02-15T04:00:02.988Z,5.42
2019-02-15T04:05:02.426Z,5.40
2019-02-15T04:10:02.888Z,5.40
2019-02-15T04:15:03.352Z,5.40
2019-02-15T04:20:02.726Z,4.93
2019-02-15T04:25:03.072Z,5.10
2019-02-15T04:30:02.488Z,5.40
2019-02-15T04:35:02.925Z,4.73
2019-02-15T04:40:01.778Z,0
2019-02-15T04:45:03.192Z,5.43
2019-02-15T04:50:02.679Z,5.20
2019-02-15T04:55:03.054Z,4.93
2019-02-15T05:00:02.416Z,5.30
2019-02-15T05:05:02.817Z,5.70
2019-02-15T05:10:03.281Z,5.60
2019-02-15T05:15:02.828Z,5.37
2019-02-15T05:20:03.232Z,5.57
2019-02-15T05:25:02.682Z,5.10
2019-02-15T05:30:03.201Z,5.17
2019-02-15T05:35:02.638Z,5.20
2019-02-15T05:40:03.058Z,5.30
2019-02-15T05:45:04.271Z,5.27
2019-02-15T05:50:03.015Z,5.63
2019-02-15T05:55:02.380Z,5.30
2019-02-15T06:00:02.817Z,5.60
2019-02-15T06:05:03.234Z,6.00
2019-02-15T06:10:02.754Z,5.13
2019-02-15T06:15:14.421Z,5.60
2019-02-15T06:20:02.699Z,5.20
2019-02-15T06:25:03.052Z,5.23
2019-02-15T06:30:02.416Z,5.67
2019-02-15T06:35:02.802Z,6.07
2019-02-15T06:40:03.244Z,5.33
2019-02-15T06:45:02.672Z,5.43
2019-02-15T06:50:03.114Z,5.93
2019-02-15T06:55:02.521Z,5.70
2019-02-15T07:00:02.864Z,5.80
2019-02-15T07:05:03.248Z,5.60
2019-02-15T07:10:02.670Z,5.83
2019-02-15T07:15:03.108Z,5.73
2019-02-15T07:20:02.502Z,6.43
2019-02-15T07:25:02.986Z,5.30
2019-02-15T07:30:02.362Z,5.23
2019-02-15T07:35:02.830Z,5.27
2019-02-15T07:40:03.240Z,5.50
2019-02-15T07:45:02.707Z,5.80
2019-02-15T07:50:03.143Z,5.13
2019-02-15T07:55:02.522Z,5.10
2019-02-15T08:00:02.060Z,0
2019-02-15T08:05:02.494Z,5.80
2019-02-15T08:10:02.932Z,5.40
2019-02-15T08:15:03.367Z,5.67
2019-02-15T08:20:02.802Z,5.50
2019-02-15T08:25:03.245Z,5.80
2019-02-15T08:30:02.646Z,5.73
2019-02-15T08:35:03.111Z,5.83
2019-02-15T08:40:02.551Z,5.80
2019-02-15T08:45:02.963Z,6.73
2019-02-15T08:50:02.413Z,6.13
2019-02-15T08:55:02.837Z,6.53
2019-02-15T09:00:03.265Z,6.20
2019-02-15T09:05:02.688Z,6.40
2019-02-15T09:10:03.128Z,6.63
2019-02-15T09:15:02.540Z,5.80
2019-02-15T09:20:02.887Z,6.27
2019-02-15T09:25:03.252Z,6.30
2019-02-15T09:30:02.650Z,7.03
2019-02-15T09:35:03.097Z,6.10
2019-02-15T09:40:02.515Z,6.27
2019-02-15T09:45:02.977Z,5.30
2019-02-15T09:50:02.375Z,5.73
2019-02-15T09:55:02.848Z,5.17
2019-02-15T10:00:03.266Z,5.60
2019-02-15T10:05:02.586Z,5.22
2019-02-15T10:10:03.021Z,4.75
2019-02-15T10:15:02.442Z,4.60
2019-02-15T10:20:02.893Z,4.80
2019-02-15T10:25:03.223Z,4.50
2019-02-15T10:30:02.782Z,4.83
2019-02-15T10:35:03.205Z,4.62
2019-02-15T10:40:02.610Z,4.40
2019-02-15T10:45:02.148Z,0
2019-02-15T10:50:02.569Z,3.72
2019-02-15T10:55:02.916Z,4.30
2019-02-15T11:00:03.255Z,4.17
2019-02-15T11:05:02.608Z,4.65
2019-02-15T11:10:03.018Z,4.03
2019-02-15T11:15:02.439Z,3.58
2019-02-15T11:20:02.884Z,3.50
2019-02-15T11:25:03.348Z,3.72
2019-02-15T11:30:02.736Z,3.70
2019-02-15T11:35:03.088Z,4.12
2019-02-15T11:40:02.498Z,3.33
2019-02-15T11:45:02.843Z,3.80
2019-02-15T11:50:03.288Z,3.70
2019-02-15T11:55:02.717Z,3.35
2019-02-15T12:00:03.051Z,3.52
2019-02-15T12:05:02.474Z,2.83
2019-02-15T12:10:02.879Z,3.15
2019-02-15T12:15:03.251Z,3.08
2019-02-15T12:20:02.666Z,3.10
2019-02-15T12:25:03.011Z,3.10
2019-02-15T12:30:02.430Z,2.80
2019-02-15T12:35:02.869Z,2.98
2019-02-15T12:40:03.320Z,2.87
2019-02-15T12:45:02.739Z,2.55
2019-02-15T12:50:03.086Z,3.00
2019-02-15T12:55:03.867Z,3.33
2019-02-15T13:00:02.381Z,3.45
2019-02-15T13:05:22.629Z,2.83
2019-02-15T13:10:03.104Z,2.90
2019-02-15T13:15:02.530Z,2.80
2019-02-15T13:20:02.974Z,3.10
2019-02-15T13:25:02.396Z,2.95
2019-02-15T13:30:02.842Z,3.17
2019-02-15T13:35:02.475Z,0
2019-02-15T13:40:02.899Z,2.90
2019-02-15T13:45:03.247Z,2.60
2019-02-15T13:50:02.654Z,2.62
2019-02-15T13:55:02.999Z,3.15
2019-02-15T14:00:02.414Z,2.65
2019-02-15T14:05:02.763Z,3.45
2019-02-15T14:10:03.198Z,3.20
2019-02-15T14:15:02.633Z,2.83
2019-02-15T14:20:03.070Z,3.40
2019-02-15T14:25:02.479Z,2.77
2019-02-15T14:30:02.833Z,2.85
2019-02-15T14:35:03.168Z,3.00
2019-02-15T14:40:02.580Z,3.37
2019-02-15T14:45:02.911Z,2.98
2019-02-15T14:50:03.266Z,2.95
2019-02-15T14:55:02.684Z,2.80
2019-02-15T15:00:03.021Z,2.58
2019-02-15T15:05:02.449Z,2.52
2019-02-15T15:10:02.902Z,2.60
2019-02-15T15:15:03.231Z,3.00
2019-02-15T15:20:02.642Z,3.20
2019-02-15T15:25:03.011Z,2.80
2019-02-15T15:30:02.414Z,2.87
2019-02-15T15:35:02.756Z,2.75
2019-02-15T15:40:03.195Z,2.87
2019-02-15T15:45:02.606Z,3.10
2019-02-15T15:50:02.937Z,3.20
2019-02-15T15:55:03.273Z,2.67
2019-02-15T16:00:02.708Z,2.72
2019-02-15T16:05:03.109Z,3.05
2019-02-15T16:10:02.626Z,2.72
2019-02-15T16:15:02.279Z,0
2019-02-15T16:20:02.636Z,3.08
2019-02-15T16:25:02.997Z,2.80
2019-02-15T16:30:02.406Z,3.00
2019-02-15T16:35:02.746Z,2.90
2019-02-15T16:40:03.140Z,2.92
2019-02-15T16:45:02.503Z,3.62
2019-02-15T16:50:02.951Z,3.10
2019-02-15T16:55:12.115Z,3.47
2019-02-15T17:00:02.392Z,3.33
2019-02-15T17:05:02.744Z,3.45
2019-02-15T17:10:03.189Z,3.42
2019-02-15T17:15:02.610Z,3.08
2019-02-15T17:20:03.061Z,3.80
2019-02-15T17:25:02.457Z,4.28
2019-02-15T17:30:02.780Z,3.67
2019-02-15T17:35:03.148Z,3.62
2019-02-15T17:40:02.526Z,3.67
2019-02-15T17:45:02.900Z,4.55
2019-02-15T17:50:03.264Z,4.47
2019-02-15T17:55:02.602Z,3.90
2019-02-15T18:00:03.004Z,3.85
2019-02-15T18:05:02.422Z,4.12
2019-02-15T18:10:02.821Z,4.17
2019-02-15T18:15:03.223Z,4.05
2019-02-15T18:20:02.626Z,4.28
2019-02-15T18:25:02.958Z,4.42
2019-02-15T18:30:03.309Z,4.67
2019-02-15T18:35:02.733Z,5.22
2019-02-15T18:40:03.182Z,5.72
2019-02-15T18:45:02.587Z,6.62
2019-02-15T18:50:02.933Z,6.80
2019-02-15T18:55:02.468Z,0
2019-02-15T19:00:02.903Z,7.47
2019-02-15T19:05:03.281Z,7.17
2019-02-15T19:10:02.808Z,6.92
2019-02-15T19:15:04.031Z,5.67
2019-02-15T19:20:02.558Z,5.37
2019-02-15T19:25:03.051Z,6.00
2019-02-15T19:30:02.546Z,5.40
2019-02-15T19:35:02.936Z,5.62
2019-02-15T19:40:02.452Z,4.67
2019-02-15T19:45:02.800Z,6.30
2019-02-15T19:50:03.238Z,5.83
2019-02-15T19:55:02.648Z,5.55
2019-02-15T20:00:02.996Z,5.25
2019-02-15T20:05:02.320Z,5.33
2019-02-15T20:10:02.758Z,5.15
2019-02-15T20:15:03.096Z,4.70
2019-02-15T20:20:02.434Z,4.65
2019-02-15T20:25:02.877Z,4.00
2019-02-15T20:30:03.551Z,3.80
2019-02-15T20:35:03.018Z,3.65
2019-02-15T20:40:02.465Z,4.10
2019-02-15T20:45:02.792Z,3.50
2019-02-15T20:50:03.235Z,3.47
2019-02-15T20:55:02.641Z,3.50
2019-02-15T21:00:03.412Z,3.52
2019-02-15T21:05:02.820Z,3.67
2019-02-15T21:10:03.261Z,3.25
2019-02-15T21:15:02.680Z,3.67
2019-02-15T21:20:07.802Z,3.33
2019-02-15T21:25:02.664Z,3.47
2019-02-15T21:30:03.095Z,3.58
2019-02-15T21:35:02.555Z,3.50
2019-02-15T21:40:02.175Z,0
2019-02-15T21:45:02.101Z,0
2019-02-15T21:50:02.865Z,3.55
2019-02-15T21:55:05.380Z,3.65
2019-02-15T22:00:03.022Z,3.77
2019-02-15T22:05:02.443Z,4.20
2019-02-15T22:10:02.877Z,4.65
2019-02-15T22:15:03.281Z,5.17
2019-02-15T22:20:02.664Z,5.20
2019-02-15T22:25:03.091Z,5.33
2019-02-15T22:30:06.615Z,0
2019-02-15T22:35:03.017Z,6.35
2019-02-15T22:40:01.636Z,0
2019-02-15T22:45:02.987Z,6.22
2019-02-15T22:50:02.404Z,7.35
2019-02-15T22:55:02.751Z,7.22
2019-02-15T23:00:12.678Z,8.10
2019-02-15T23:05:02.511Z,10.00
2019-02-15T23:10:02.947Z,12.78
2019-02-15T23:15:03.355Z,14.33
2019-02-15T23:20:02.725Z,14.55
2019-02-15T23:25:03.149Z,12.88
2019-02-15T23:30:02.583Z,11.83
2019-02-15T23:35:03.021Z,11.63
2019-02-15T23:40:02.462Z,11.70
2019-02-15T23:45:02.789Z,11.10
2019-02-15T23:50:03.224Z,11.28
2019-02-15T23:55:02.631Z,9.90
